Flight Track Log - Related Links

Times and Time Zones

All times are in EST time to prevent confusion due to time zone crossing. See the N1944E flight status page for this flight to view local times or setup timezone preferences in your user account.

Time Position Orientation Groundspeed Altitude Reporting Facility
EST Latitude Longitude Course Direction KTS MPH feet Rate Location/Type
Thu 05:19:27 PM 44.4753 -109.0394 159° South 121 139 6,700  Level Salt Lake Center
Thu 05:20:28 PM 44.4372 -109.0194 159° South 145 167 7,300 732 Climbing Salt Lake Center
Thu 05:21:30 PM 44.3964 -109.0250 186° South 146 168 8,200 871 Climbing Salt Lake Center
Thu 05:22:32 PM 44.3567 -109.0283 183° South 146 168 9,100 927 Climbing Salt Lake Center
Thu 05:23:33 PM 44.3167 -109.0322 184° South 144 166 10,100 878 Climbing Salt Lake Center
Thu 05:24:35 PM 44.2750 -109.0325 180° South 146 168 10,900 1,065 Climbing Salt Lake Center
Thu 05:25:37 PM 44.2247 -109.0339 181° South 149 171 12,300 1,122 Climbing Salt Lake Center
Thu 05:26:38 PM 44.1833 -109.0317 178° South 149 171 13,200 976 Climbing Salt Lake Center
Thu 05:27:40 PM 44.1400 -109.0317 180° South 151 174 14,300 871 Climbing Salt Lake Center
Thu 05:28:42 PM 44.0958 -109.0328 181° South 155 178 15,000 390 Climbing Salt Lake Center
Thu 05:29:43 PM 44.0439 -109.0356 182° South 167 192 15,100 49 Climbing Salt Lake Center
Thu 05:30:45 PM 43.9897 -109.0356 180° South 181 208 15,100  Level Salt Lake Center
Thu 05:31:46 PM 43.9375 -109.0339 179° South 187 215 15,100 195 Level Salt Lake Center
Thu 05:32:48 PM 43.8786 -109.0386 183° South 182 209 15,500 339 Climbing Salt Lake Center
Thu 05:33:50 PM 43.8339 -109.0369 178° South 168 193 15,800 244 Climbing Salt Lake Center
Thu 05:34:51 PM 43.7908 -109.0364 179° South 160 184 16,000 98 Climbing Salt Lake Center
Thu 05:35:53 PM 43.7442 -109.0394 183° South 162 186 16,000  Level Salt Lake Center
Thu 05:36:55 PM 43.6947 -109.0403 181° South 169 194 16,000  Level Salt Lake Center
Thu 05:37:56 PM 43.6439 -109.0406 180° South 176 203 16,000  Level Salt Lake Center
Thu 05:38:58 PM 43.5939 -109.0414 181° South 180 207 16,000  Level Salt Lake Center
Thu 05:40:00 PM 43.5344 -109.0439 182° South 179 206 16,000  Level Salt Lake Center
Thu 05:41:01 PM 43.4831 -109.0447 181° South 181 208 16,000  Level Salt Lake Center
Thu 05:42:03 PM 43.4308 -109.0453 180° South 185 213 16,000  Level Salt Lake Center
Thu 05:43:05 PM 43.3786 -109.0392 175° South 186 214 16,000  Level Salt Lake Center
Thu 05:44:06 PM 43.3256 -109.0314 174° South 189 217 16,000  Level Salt Lake Center
Thu 05:45:08 PM 43.2714 -109.0206 172° South 195 224 16,000  Level Salt Lake Center
Thu 05:46:10 PM 43.2183 -109.0128 174° South 194 223 16,000  Level Salt Lake Center
Thu 05:47:12 PM 43.1508 -109.0053 175° South 201 231 16,000  Level Salt Lake Center
Thu 05:48:13 PM 43.0947 -108.9972 174° South 203 234 16,000  Level Salt Lake Center
Thu 05:49:15 PM 43.0383 -108.9872 173° South 204 235 16,000  Level Salt Lake Center
Thu 05:50:17 PM 42.9853 -108.9831 177° South 195 224 16,000  Level Salt Lake Center
Thu 05:51:19 PM 42.9325 -108.9778 176° South 190 219 16,000 -49 Level Salt Lake Center
Thu 05:52:20 PM 42.8753 -108.9658 171° South 187 215 15,900 -49 Descending Salt Lake Center
Thu 05:53:22 PM 42.8283 -108.9581 173° South 180 207 15,900  Level Salt Lake Center
Thu 05:54:24 PM 42.7733 -108.9511 175° South 178 205 15,900  Level Salt Lake Center
Thu 05:55:26 PM 42.7272 -108.9456 175° South 175 201 15,900  Level Salt Lake Center
Thu 05:56:27 PM 42.6808 -108.9414 176° South 175 201 15,900  Level Salt Lake Center
Thu 05:57:29 PM 42.6264 -108.9339 174° South 176 203 15,900  Level Salt Lake Center
Thu 05:58:31 PM 42.5800 -108.9239 171° South 175 201 15,900  Level Salt Lake Center
Thu 05:59:33 PM 42.5256 -108.9058 166° South 178 205 15,900  Level Salt Lake Center
Thu 06:00:34 PM 42.4767 -108.8908 167° South 185 213 15,900 49 Level Salt Lake Center
Thu 06:01:36 PM 42.4200 -108.8742 168° South 187 215 16,000 48 Climbing Salt Lake Center
Thu 06:02:38 PM 42.3694 -108.8614 169° South 190 219 16,000  Level Salt Lake Center
Thu 06:03:40 PM 42.3197 -108.8483 169° South 190 219 16,000  Level Salt Lake Center
Thu 06:04:41 PM 42.2622 -108.8339 169° South 189 217 16,000 -244 Level Salt Lake Center
Thu 06:05:43 PM 42.2136 -108.8197 168° South 187 215 15,500 -823 Descending Salt Lake Center
Thu 06:06:45 PM 42.1475 -108.8072 172° South 207 238 14,300 -976 Descending Salt Lake Center
Thu 06:07:46 PM 42.0914 -108.7950 171° South 211 243 13,500 -683 Descending Salt Lake Center
Thu 06:08:48 PM 42.0258 -108.7814 171° South 213 245 12,900 -774 Descending Salt Lake Center
Thu 06:09:50 PM 41.9703 -108.7736 174° South 211 243 11,900 -435 Descending Salt Lake Center
Thu 06:10:52 PM 41.9069 -108.7653 174° South 208 239 12,000 49 Climbing Salt Lake Center
Thu 06:11:53 PM 41.8575 -108.7569 173° South 197 227 12,000 -390 Level Salt Lake Center
Thu 06:12:55 PM 41.8072 -108.7503 174° South 191 220 11,200 -484 Descending Salt Lake Center
Thu 06:13:57 PM 41.7428 -108.7439 176° South 199 229 11,000 -98 Descending Salt Lake Center
Thu 06:14:58 PM 41.6931 -108.7356 173° South 196 226 11,000 -439 Level Salt Lake Center
Thu 06:16:00 PM 41.6339 -108.7264 173° South 191 220 10,100 -484 Descending Salt Lake Center
Thu 06:17:02 PM 41.5817 -108.7161 172° South 195 224 10,000 -49 Descending Salt Lake Center
Thu 06:18:03 PM 41.5464 -108.7356 202° Southwest 172 198 10,000 -341 Level Salt Lake Center
Thu 06:19:05 PM 41.5433 -108.7872 265° West 138 159 9,300 -585 Descending Salt Lake Center
Thu 06:20:06 PM 41.5556 -108.8392 287° West 150 173 8,800 -244 Descending Salt Lake Center
Thu 06:21:08 PM 41.5633 -108.8842 283° West 126 145 8,800  Level Salt Lake Center
Thu 06:22:10 PM 41.5694 -108.9175 284° West 103 119 8,800 -293 Level Salt Lake Center
Thu 06:23:11 PM 41.5767 -108.9603 283° West 103 119 8,200 -537 Descending Salt Lake Center
Thu 06:24:13 PM 41.5822 -108.9947 282° West 102 117 7,700 -537 Descending Salt Lake Center
Thu 06:25:14 PM 41.5892 -109.0350 283° West 100 115 7,100 -439 Descending Salt Lake Center
Thu 06:26:16 PM 41.5933 -109.0592 283° West 74 85 6,800 -290 Descending Salt Lake Center

Login

Don't have an account? Register now (free) for customized features, flight alerts, and more!